sensor_id;sensor_type;location;lat;lon;timestamp;pressure;altitude;pressure_sealevel;temperature;humidity
79544;BME280;68994;47.176;7.534;2023-08-06T00:00:31;95556.22;;;15.71;63.78
79544;BME280;68994;47.176;7.534;2023-08-06T00:02:57;95553.88;;;15.84;63.51
79544;BME280;68994;47.176;7.534;2023-08-06T00:05:24;95547.06;;;15.86;62.90
79544;BME280;68994;47.176;7.534;2023-08-06T00:07:51;95547.28;;;15.76;63.78
79544;BME280;68994;47.176;7.534;2023-08-06T00:10:17;95549.56;;;15.83;62.98
79544;BME280;68994;47.176;7.534;2023-08-06T00:12:45;95547.44;;;15.93;62.24
79544;BME280;68994;47.176;7.534;2023-08-06T00:15:12;95559.03;;;15.94;62.39
79544;BME280;68994;47.176;7.534;2023-08-06T00:17:39;95564.41;;;15.94;64.02
79544;BME280;68994;47.176;7.534;2023-08-06T00:20:07;95558.13;;;15.85;65.79
79544;BME280;68994;47.176;7.534;2023-08-06T00:22:34;95551.97;;;15.70;67.48
79544;BME280;68994;47.176;7.534;2023-08-06T00:25:00;95547.16;;;15.53;67.38
79544;BME280;68994;47.176;7.534;2023-08-06T00:27:28;95551.09;;;15.33;69.69
79544;BME280;68994;47.176;7.534;2023-08-06T00:29:56;95536.25;;;15.22;67.65
79544;BME280;68994;47.176;7.534;2023-08-06T00:32:22;95533.56;;;15.22;68.52
79544;BME280;68994;47.176;7.534;2023-08-06T00:34:49;95534.16;;;15.19;69.15
79544;BME280;68994;47.176;7.534;2023-08-06T00:37:16;95525.16;;;15.10;69.02
79544;BME280;68994;47.176;7.534;2023-08-06T00:39:43;95533.47;;;15.13;68.88
79544;BME280;68994;47.176;7.534;2023-08-06T00:42:10;95535.34;;;15.13;68.58
79544;BME280;68994;47.176;7.534;2023-08-06T00:44:37;95531.66;;;15.09;68.48
79544;BME280;68994;47.176;7.534;2023-08-06T00:47:06;95536.13;;;14.99;68.68
79544;BME280;68994;47.176;7.534;2023-08-06T00:49:34;95536.50;;;14.93;68.74
79544;BME280;68994;47.176;7.534;2023-08-06T00:52:02;95539.19;;;14.93;67.38
79544;BME280;68994;47.176;7.534;2023-08-06T00:54:31;95538.69;;;14.77;68.16
79544;BME280;68994;47.176;7.534;2023-08-06T00:56:58;95524.13;;;14.78;68.50
79544;BME280;68994;47.176;7.534;2023-08-06T00:59:26;95524.13;;;14.64;69.27
79544;BME280;68994;47.176;7.534;2023-08-06T01:01:53;95534.47;;;14.71;67.65
79544;BME280;68994;47.176;7.534;2023-08-06T01:04:22;95529.00;;;14.62;69.14
79544;BME280;68994;47.176;7.534;2023-08-06T01:06:59;95518.75;;;14.64;68.63
79544;BME280;68994;47.176;7.534;2023-08-06T01:09:33;95522.94;;;14.51;70.02
79544;BME280;68994;47.176;7.534;2023-08-06T01:12:06;95526.63;;;14.41;70.61
79544;BME280;68994;47.176;7.534;2023-08-06T01:14:47;95519.09;;;14.57;70.38
79544;BME280;68994;47.176;7.534;2023-08-06T01:17:18;95514.78;;;14.61;69.98
79544;BME280;68994;47.176;7.534;2023-08-06T01:19:46;95516.69;;;14.56;70.05
79544;BME280;68994;47.176;7.534;2023-08-06T01:22:14;95514.16;;;14.64;69.24
79544;BME280;68994;47.176;7.534;2023-08-06T01:24:45;95513.47;;;14.59;70.81
79544;BME280;68994;47.176;7.534;2023-08-06T01:27:19;95508.34;;;14.57;70.59
79544;BME280;68994;47.176;7.534;2023-08-06T01:30:01;95502.09;;;14.48;70.78
79544;BME280;68994;47.176;7.534;2023-08-06T01:32:32;95507.94;;;14.50;70.33
79544;BME280;68994;47.176;7.534;2023-08-06T01:35:02;95497.00;;;14.46;70.15
79544;BME280;68994;47.176;7.534;2023-08-06T01:37:32;95499.41;;;14.48;70.27
79544;BME280;68994;47.176;7.534;2023-08-06T01:39:59;95501.47;;;14.51;69.99
79544;BME280;68994;47.176;7.534;2023-08-06T01:42:25;95499.81;;;14.55;68.55
79544;BME280;68994;47.176;7.534;2023-08-06T01:44:52;95500.03;;;14.59;69.01
79544;BME280;68994;47.176;7.534;2023-08-06T01:47:18;95495.72;;;14.58;68.97
79544;BME280;68994;47.176;7.534;2023-08-06T01:49:45;95507.38;;;14.53;69.33
79544;BME280;68994;47.176;7.534;2023-08-06T01:52:12;95491.09;;;14.63;67.82
79544;BME280;68994;47.176;7.534;2023-08-06T01:54:40;95501.47;;;14.70;68.55
79544;BME280;68994;47.176;7.534;2023-08-06T01:57:07;95500.59;;;14.75;68.61
79544;BME280;68994;47.176;7.534;2023-08-06T01:59:33;95503.97;;;14.80;68.26
79544;BME280;68994;47.176;7.534;2023-08-06T02:02:00;95496.50;;;14.77;68.54
79544;BME280;68994;47.176;7.534;2023-08-06T02:04:27;95497.19;;;14.83;67.69
79544;BME280;68994;47.176;7.534;2023-08-06T02:06:53;95500.50;;;14.94;67.34
79544;BME280;68994;47.176;7.534;2023-08-06T02:09:20;95492.34;;;14.99;68.42
79544;BME280;68994;47.176;7.534;2023-08-06T02:11:48;95508.06;;;14.92;68.84
79544;BME280;68994;47.176;7.534;2023-08-06T02:14:15;95506.34;;;14.82;71.44
79544;BME280;68994;47.176;7.534;2023-08-06T02:16:41;95493.91;;;14.72;71.83
79544;BME280;68994;47.176;7.534;2023-08-06T02:19:08;95495.03;;;14.52;73.87
79544;BME280;68994;47.176;7.534;2023-08-06T02:21:35;95488.75;;;14.43;73.34
79544;BME280;68994;47.176;7.534;2023-08-06T02:24:02;95484.84;;;14.35;74.49
79544;BME280;68994;47.176;7.534;2023-08-06T02:26:31;95486.22;;;14.33;74.34
79544;BME280;68994;47.176;7.534;2023-08-06T02:28:59;95488.78;;;14.24;73.82
79544;BME280;68994;47.176;7.534;2023-08-06T02:31:27;95479.44;;;14.21;74.08
79544;BME280;68994;47.176;7.534;2023-08-06T02:33:54;95489.72;;;14.14;75.35
79544;BME280;68994;47.176;7.534;2023-08-06T02:36:20;95482.56;;;14.09;75.92
79544;BME280;68994;47.176;7.534;2023-08-06T02:38:47;95481.31;;;14.21;74.94
79544;BME280;68994;47.176;7.534;2023-08-06T02:41:14;95481.38;;;14.35;73.85
79544;BME280;68994;47.176;7.534;2023-08-06T02:43:41;95465.84;;;14.32;73.13
79544;BME280;68994;47.176;7.534;2023-08-06T02:46:09;95482.44;;;14.34;74.10
79544;BME280;68994;47.176;7.534;2023-08-06T02:48:35;95476.09;;;14.29;74.02
79544;BME280;68994;47.176;7.534;2023-08-06T02:51:02;95475.47;;;14.33;75.21
79544;BME280;68994;47.176;7.534;2023-08-06T02:53:28;95485.69;;;14.50;73.01
79544;BME280;68994;47.176;7.534;2023-08-06T02:55:54;95480.00;;;14.51;72.39
79544;BME280;68994;47.176;7.534;2023-08-06T02:58:21;95474.41;;;14.47;72.86
79544;BME280;68994;47.176;7.534;2023-08-06T03:00:59;95481.06;;;14.36;73.74
79544;BME280;68994;47.176;7.534;2023-08-06T03:03:27;95480.75;;;14.38;72.67
79544;BME280;68994;47.176;7.534;2023-08-06T03:05:54;95474.72;;;14.46;72.56
79544;BME280;68994;47.176;7.534;2023-08-06T03:08:21;95468.94;;;14.39;73.51
79544;BME280;68994;47.176;7.534;2023-08-06T03:10:48;95454.00;;;14.33;73.69
79544;BME280;68994;47.176;7.534;2023-08-06T03:13:15;95462.19;;;14.41;73.94
79544;BME280;68994;47.176;7.534;2023-08-06T03:15:42;95459.38;;;14.33;73.83
79544;BME280;68994;47.176;7.534;2023-08-06T03:18:08;95460.69;;;14.35;73.23
79544;BME280;68994;47.176;7.534;2023-08-06T03:20:36;95461.56;;;14.31;73.48
79544;BME280;68994;47.176;7.534;2023-08-06T03:23:03;95458.59;;;14.32;72.80
79544;BME280;68994;47.176;7.534;2023-08-06T03:25:30;95463.75;;;14.28;72.92
79544;BME280;68994;47.176;7.534;2023-08-06T03:27:56;95451.84;;;14.35;72.61
79544;BME280;68994;47.176;7.534;2023-08-06T03:30:23;95469.91;;;14.29;72.89
79544;BME280;68994;47.176;7.534;2023-08-06T03:32:49;95463.38;;;14.35;70.40
79544;BME280;68994;47.176;7.534;2023-08-06T03:35:16;95467.66;;;14.36;69.83
79544;BME280;68994;47.176;7.534;2023-08-06T03:37:44;95467.94;;;14.35;69.82
79544;BME280;68994;47.176;7.534;2023-08-06T03:40:11;95471.91;;;14.37;70.29
79544;BME280;68994;47.176;7.534;2023-08-06T03:42:38;95472.94;;;14.41;69.48
79544;BME280;68994;47.176;7.534;2023-08-06T03:45:05;95473.22;;;14.40;70.90
79544;BME280;68994;47.176;7.534;2023-08-06T03:47:32;95481.38;;;14.35;71.83
79544;BME280;68994;47.176;7.534;2023-08-06T03:49:59;95479.25;;;14.32;72.62
79544;BME280;68994;47.176;7.534;2023-08-06T03:52:26;95482.69;;;14.18;73.83
79544;BME280;68994;47.176;7.534;2023-08-06T03:54:54;95481.69;;;14.14;74.48
79544;BME280;68994;47.176;7.534;2023-08-06T03:57:20;95492.28;;;14.05;75.04
79544;BME280;68994;47.176;7.534;2023-08-06T03:59:47;95497.66;;;13.86;76.43
79544;BME280;68994;47.176;7.534;2023-08-06T04:02:14;95484.03;;;13.64;78.14
79544;BME280;68994;47.176;7.534;2023-08-06T04:04:40;95509.19;;;13.68;79.15
79544;BME280;68994;47.176;7.534;2023-08-06T04:07:07;95525.63;;;13.61;80.42
79544;BME280;68994;47.176;7.534;2023-08-06T04:09:34;95546.16;;;13.47;81.76
79544;BME280;68994;47.176;7.534;2023-08-06T04:12:03;95537.50;;;13.31;84.48
79544;BME280;68994;47.176;7.534;2023-08-06T04:14:30;95533.78;;;13.27;80.91
79544;BME280;68994;47.176;7.534;2023-08-06T04:16:57;95516.94;;;12.97;81.29
79544;BME280;68994;47.176;7.534;2023-08-06T04:19:24;95511.19;;;12.85;82.23
79544;BME280;68994;47.176;7.534;2023-08-06T04:21:50;95520.19;;;12.70;81.22
79544;BME280;68994;47.176;7.534;2023-08-06T04:24:17;95522.06;;;12.69;80.63
79544;BME280;68994;47.176;7.534;2023-08-06T04:26:43;95511.13;;;12.66;80.69
79544;BME280;68994;47.176;7.534;2023-08-06T04:29:11;95528.97;;;12.75;81.07
79544;BME280;68994;47.176;7.534;2023-08-06T04:31:38;95525.81;;;12.68;81.32
79544;BME280;68994;47.176;7.534;2023-08-06T04:34:05;95533.50;;;12.75;79.64
79544;BME280;68994;47.176;7.534;2023-08-06T04:36:33;95537.56;;;12.72;79.36
79544;BME280;68994;47.176;7.534;2023-08-06T04:38:59;95545.81;;;12.76;77.53
79544;BME280;68994;47.176;7.534;2023-08-06T04:41:26;95529.03;;;12.70;79.29
79544;BME280;68994;47.176;7.534;2023-08-06T04:43:53;95551.41;;;12.79;78.28
79544;BME280;68994;47.176;7.534;2023-08-06T04:46:21;95539.16;;;12.73;77.16
79544;BME280;68994;47.176;7.534;2023-08-06T04:48:47;95531.13;;;12.73;76.19
79544;BME280;68994;47.176;7.534;2023-08-06T04:51:14;95538.59;;;12.76;76.17
79544;BME280;68994;47.176;7.534;2023-08-06T04:53:41;95543.47;;;12.69;75.64
79544;BME280;68994;47.176;7.534;2023-08-06T04:56:07;95542.91;;;12.72;77.16
79544;BME280;68994;47.176;7.534;2023-08-06T04:58:34;95548.50;;;12.76;76.48
79544;BME280;68994;47.176;7.534;2023-08-06T05:01:01;95550.41;;;12.75;75.36
79544;BME280;68994;47.176;7.534;2023-08-06T05:03:29;95548.84;;;12.69;75.72
79544;BME280;68994;47.176;7.534;2023-08-06T05:05:55;95551.06;;;12.62;76.01
79544;BME280;68994;47.176;7.534;2023-08-06T05:08:22;95543.06;;;12.52;77.17
79544;BME280;68994;47.176;7.534;2023-08-06T05:10:48;95550.31;;;12.51;76.39
79544;BME280;68994;47.176;7.534;2023-08-06T05:13:15;95547.97;;;12.44;76.10
79544;BME280;68994;47.176;7.534;2023-08-06T05:15:42;95549.03;;;12.49;74.86
79544;BME280;68994;47.176;7.534;2023-08-06T05:18:10;95552.69;;;12.58;75.57
79544;BME280;68994;47.176;7.534;2023-08-06T05:20:40;95555.34;;;12.58;74.70
79544;BME280;68994;47.176;7.534;2023-08-06T05:23:07;95568.00;;;12.52;75.41
79544;BME280;68994;47.176;7.534;2023-08-06T05:25:34;95566.66;;;12.50;75.43
79544;BME280;68994;47.176;7.534;2023-08-06T05:28:01;95573.09;;;12.49;77.00
79544;BME280;68994;47.176;7.534;2023-08-06T05:30:28;95565.59;;;12.51;77.60
79544;BME280;68994;47.176;7.534;2023-08-06T05:32:55;95566.69;;;12.44;77.67
79544;BME280;68994;47.176;7.534;2023-08-06T05:35:22;95581.09;;;12.54;77.70
79544;BME280;68994;47.176;7.534;2023-08-06T05:37:51;95577.84;;;12.57;77.96
79544;BME280;68994;47.176;7.534;2023-08-06T05:40:17;95572.19;;;12.64;77.37
79544;BME280;68994;47.176;7.534;2023-08-06T05:42:44;95568.88;;;12.72;77.30
79544;BME280;68994;47.176;7.534;2023-08-06T05:45:11;95576.94;;;12.67;78.60
79544;BME280;68994;47.176;7.534;2023-08-06T05:47:37;95581.88;;;12.84;76.64
79544;BME280;68994;47.176;7.534;2023-08-06T05:50:05;95576.19;;;12.90;76.08
79544;BME280;68994;47.176;7.534;2023-08-06T05:52:32;95588.19;;;12.98;74.01
79544;BME280;68994;47.176;7.534;2023-08-06T05:55:00;95591.00;;;13.12;72.29
79544;BME280;68994;47.176;7.534;2023-08-06T05:57:26;95591.75;;;13.17;74.94
79544;BME280;68994;47.176;7.534;2023-08-06T05:59:53;95599.91;;;13.31;71.85
79544;BME280;68994;47.176;7.534;2023-08-06T06:02:19;95598.88;;;13.32;71.13
79544;BME280;68994;47.176;7.534;2023-08-06T06:04:46;95611.16;;;13.33;71.55
79544;BME280;68994;47.176;7.534;2023-08-06T06:07:13;95612.28;;;13.32;72.27
79544;BME280;68994;47.176;7.534;2023-08-06T06:09:40;95615.53;;;13.24;73.36
79544;BME280;68994;47.176;7.534;2023-08-06T06:12:08;95637.25;;;13.23;72.22
79544;BME280;68994;47.176;7.534;2023-08-06T06:14:34;95630.56;;;13.20;75.72
79544;BME280;68994;47.176;7.534;2023-08-06T06:17:01;95634.69;;;13.12;75.62
79544;BME280;68994;47.176;7.534;2023-08-06T06:19:28;95637.63;;;13.11;75.86
79544;BME280;68994;47.176;7.534;2023-08-06T06:21:54;95651.06;;;13.06;75.45
79544;BME280;68994;47.176;7.534;2023-08-06T06:24:23;95650.25;;;13.05;75.28
79544;BME280;68994;47.176;7.534;2023-08-06T06:26:49;95657.59;;;12.94;75.10
79544;BME280;68994;47.176;7.534;2023-08-06T06:29:17;95658.69;;;12.88;75.75
79544;BME280;68994;47.176;7.534;2023-08-06T06:31:44;95660.13;;;12.80;77.31
79544;BME280;68994;47.176;7.534;2023-08-06T06:34:11;95668.13;;;12.86;74.74
79544;BME280;68994;47.176;7.534;2023-08-06T06:36:37;95672.38;;;12.87;76.10
79544;BME280;68994;47.176;7.534;2023-08-06T06:39:04;95680.22;;;12.78;77.02
79544;BME280;68994;47.176;7.534;2023-08-06T06:41:31;95678.13;;;12.70;78.24
79544;BME280;68994;47.176;7.534;2023-08-06T06:43:58;95682.41;;;12.71;78.06
79544;BME280;68994;47.176;7.534;2023-08-06T06:46:26;95693.88;;;12.76;77.47
79544;BME280;68994;47.176;7.534;2023-08-06T06:48:53;95699.78;;;12.73;76.91
79544;BME280;68994;47.176;7.534;2023-08-06T06:51:19;95704.84;;;12.75;78.18
79544;BME280;68994;47.176;7.534;2023-08-06T06:53:46;95704.09;;;12.69;78.75
79544;BME280;68994;47.176;7.534;2023-08-06T06:56:13;95702.53;;;12.63;77.79
79544;BME280;68994;47.176;7.534;2023-08-06T06:58:39;95707.94;;;12.53;79.92
79544;BME280;68994;47.176;7.534;2023-08-06T07:01:06;95701.28;;;12.50;80.50
79544;BME280;68994;47.176;7.534;2023-08-06T07:03:36;95707.41;;;12.56;80.65
79544;BME280;68994;47.176;7.534;2023-08-06T07:06:03;95707.19;;;12.47;80.93
79544;BME280;68994;47.176;7.534;2023-08-06T07:08:30;95728.34;;;12.43;81.12
79544;BME280;68994;47.176;7.534;2023-08-06T07:11:01;95710.44;;;12.39;83.63
79544;BME280;68994;47.176;7.534;2023-08-06T07:13:28;95704.78;;;12.46;82.31
79544;BME280;68994;47.176;7.534;2023-08-06T07:15:55;95722.66;;;12.55;81.49
79544;BME280;68994;47.176;7.534;2023-08-06T07:18:21;95729.28;;;12.63;81.99
79544;BME280;68994;47.176;7.534;2023-08-06T07:20:50;95718.00;;;12.71;81.32
79544;BME280;68994;47.176;7.534;2023-08-06T07:23:17;95728.22;;;12.64;81.58
79544;BME280;68994;47.176;7.534;2023-08-06T07:25:43;95735.69;;;12.72;82.01
79544;BME280;68994;47.176;7.534;2023-08-06T07:28:10;95714.16;;;12.88;82.42
79544;BME280;68994;47.176;7.534;2023-08-06T07:30:40;95734.16;;;13.01;82.89
79544;BME280;68994;47.176;7.534;2023-08-06T07:33:07;95724.75;;;13.03;80.92
79544;BME280;68994;47.176;7.534;2023-08-06T07:35:34;95732.19;;;13.11;80.73
79544;BME280;68994;47.176;7.534;2023-08-06T07:38:02;95735.66;;;13.12;80.95
79544;BME280;68994;47.176;7.534;2023-08-06T07:40:29;95738.63;;;13.10;80.42
79544;BME280;68994;47.176;7.534;2023-08-06T07:42:56;95747.69;;;13.14;80.50
79544;BME280;68994;47.176;7.534;2023-08-06T07:45:22;95745.31;;;13.13;80.37
79544;BME280;68994;47.176;7.534;2023-08-06T07:47:49;95749.38;;;13.05;82.00
79544;BME280;68994;47.176;7.534;2023-08-06T07:50:16;95760.34;;;13.04;82.68
79544;BME280;68994;47.176;7.534;2023-08-06T07:52:43;95763.84;;;13.04;81.65
79544;BME280;68994;47.176;7.534;2023-08-06T07:55:11;95753.09;;;13.09;83.27
79544;BME280;68994;47.176;7.534;2023-08-06T07:57:37;95754.72;;;13.05;81.18
79544;BME280;68994;47.176;7.534;2023-08-06T08:00:05;95745.69;;;12.96;81.48
79544;BME280;68994;47.176;7.534;2023-08-06T08:02:32;95746.25;;;12.93;83.01
79544;BME280;68994;47.176;7.534;2023-08-06T08:04:58;95744.00;;;13.05;82.27
79544;BME280;68994;47.176;7.534;2023-08-06T08:07:25;95749.22;;;13.26;81.46
79544;BME280;68994;47.176;7.534;2023-08-06T08:09:54;95748.13;;;13.27;81.54
79544;BME280;68994;47.176;7.534;2023-08-06T08:12:22;95746.06;;;13.18;82.11
79544;BME280;68994;47.176;7.534;2023-08-06T08:14:49;95752.28;;;13.14;82.46
79544;BME280;68994;47.176;7.534;2023-08-06T08:17:15;95746.97;;;13.04;81.63
79544;BME280;68994;47.176;7.534;2023-08-06T08:19:42;95758.50;;;13.04;82.46
79544;BME280;68994;47.176;7.534;2023-08-06T08:22:09;95751.84;;;13.36;81.91
79544;BME280;68994;47.176;7.534;2023-08-06T08:24:36;95753.00;;;13.59;80.86
79544;BME280;68994;47.176;7.534;2023-08-06T08:27:03;95761.31;;;13.58;79.68
79544;BME280;68994;47.176;7.534;2023-08-06T08:29:31;95750.81;;;13.61;80.84
79544;BME280;68994;47.176;7.534;2023-08-06T08:31:57;95754.38;;;13.81;79.09
79544;BME280;68994;47.176;7.534;2023-08-06T08:34:24;95747.44;;;14.04;80.99
79544;BME280;68994;47.176;7.534;2023-08-06T08:36:51;95761.81;;;14.13;78.80
79544;BME280;68994;47.176;7.534;2023-08-06T08:39:17;95749.47;;;14.36;76.21
79544;BME280;68994;47.176;7.534;2023-08-06T08:41:44;95776.81;;;14.62;78.04
79544;BME280;68994;47.176;7.534;2023-08-06T08:44:12;95771.34;;;14.92;75.64
79544;BME280;68994;47.176;7.534;2023-08-06T08:46:47;95770.41;;;15.01;75.44
79544;BME280;68994;47.176;7.534;2023-08-06T08:49:14;95787.72;;;15.09;73.26
79544;BME280;68994;47.176;7.534;2023-08-06T08:51:41;95784.13;;;15.00;74.29
79544;BME280;68994;47.176;7.534;2023-08-06T08:54:11;95793.19;;;14.85;73.89
79544;BME280;68994;47.176;7.534;2023-08-06T08:56:39;95796.53;;;14.77;74.73
79544;BME280;68994;47.176;7.534;2023-08-06T08:59:06;95795.69;;;14.76;73.57
79544;BME280;68994;47.176;7.534;2023-08-06T09:01:33;95803.72;;;14.57;72.93
79544;BME280;68994;47.176;7.534;2023-08-06T09:04:05;95798.09;;;14.35;73.82
79544;BME280;68994;47.176;7.534;2023-08-06T09:06:33;95802.28;;;14.41;74.85
79544;BME280;68994;47.176;7.534;2023-08-06T09:09:06;95805.53;;;14.38;73.48
79544;BME280;68994;47.176;7.534;2023-08-06T09:11:39;95819.28;;;14.36;74.31
79544;BME280;68994;47.176;7.534;2023-08-06T09:14:08;95809.09;;;14.33;74.90
79544;BME280;68994;47.176;7.534;2023-08-06T09:16:35;95828.47;;;14.01;76.88
79544;BME280;68994;47.176;7.534;2023-08-06T09:19:08;95829.78;;;13.79;78.88
79544;BME280;68994;47.176;7.534;2023-08-06T09:21:37;95824.97;;;13.76;80.35
79544;BME280;68994;47.176;7.534;2023-08-06T09:24:07;95833.06;;;13.71;77.75
79544;BME280;68994;47.176;7.534;2023-08-06T09:26:34;95838.19;;;13.62;79.23
79544;BME280;68994;47.176;7.534;2023-08-06T09:29:01;95848.94;;;13.62;80.06
79544;BME280;68994;47.176;7.534;2023-08-06T09:31:32;95858.38;;;13.54;76.83
79544;BME280;68994;47.176;7.534;2023-08-06T09:33:59;95852.00;;;13.45;77.72
79544;BME280;68994;47.176;7.534;2023-08-06T09:36:28;95872.53;;;13.21;78.57
79544;BME280;68994;47.176;7.534;2023-08-06T09:38:55;95862.97;;;13.04;80.96
79544;BME280;68994;47.176;7.534;2023-08-06T09:41:26;95856.00;;;13.03;80.45
79544;BME280;68994;47.176;7.534;2023-08-06T09:43:53;95878.72;;;13.16;79.99
79544;BME280;68994;47.176;7.534;2023-08-06T09:46:20;95870.38;;;13.17;82.60
79544;BME280;68994;47.176;7.534;2023-08-06T09:48:47;95868.72;;;13.27;81.28
79544;BME280;68994;47.176;7.534;2023-08-06T09:51:15;95871.38;;;13.32;81.46
79544;BME280;68994;47.176;7.534;2023-08-06T09:53:45;95884.25;;;13.30;79.63
79544;BME280;68994;47.176;7.534;2023-08-06T09:56:13;95871.97;;;13.18;81.39
79544;BME280;68994;47.176;7.534;2023-08-06T09:58:42;95871.47;;;13.16;82.70
79544;BME280;68994;47.176;7.534;2023-08-06T10:01:08;95878.09;;;13.29;80.65
79544;BME280;68994;47.176;7.534;2023-08-06T10:03:38;95882.34;;;13.30;82.30
79544;BME280;68994;47.176;7.534;2023-08-06T10:06:05;95883.13;;;13.41;81.72
79544;BME280;68994;47.176;7.534;2023-08-06T10:08:33;95885.56;;;13.77;82.28
79544;BME280;68994;47.176;7.534;2023-08-06T10:11:03;95880.69;;;14.43;79.83
79544;BME280;68994;47.176;7.534;2023-08-06T10:13:31;95881.78;;;15.09;76.81
79544;BME280;68994;47.176;7.534;2023-08-06T10:15:59;95882.56;;;16.19;73.11
79544;BME280;68994;47.176;7.534;2023-08-06T10:18:27;95888.72;;;16.52;69.88
79544;BME280;68994;47.176;7.534;2023-08-06T10:20:54;95891.25;;;15.83;73.85
79544;BME280;68994;47.176;7.534;2023-08-06T10:23:33;95872.34;;;15.50;72.59
79544;BME280;68994;47.176;7.534;2023-08-06T10:26:01;95879.34;;;15.51;72.67
79544;BME280;68994;47.176;7.534;2023-08-06T10:28:34;95881.66;;;15.76;71.16
79544;BME280;68994;47.176;7.534;2023-08-06T10:31:02;95881.84;;;16.60;72.45
79544;BME280;68994;47.176;7.534;2023-08-06T10:33:40;95878.47;;;16.96;69.35
79544;BME280;68994;47.176;7.534;2023-08-06T10:36:08;95864.41;;;16.85;68.20
79544;BME280;68994;47.176;7.534;2023-08-06T10:38:44;95867.38;;;16.83;69.10
79544;BME280;68994;47.176;7.534;2023-08-06T10:41:21;95873.22;;;17.27;69.17
79544;BME280;68994;47.176;7.534;2023-08-06T10:43:48;95874.09;;;17.00;68.43
79544;BME280;68994;47.176;7.534;2023-08-06T10:46:22;95871.69;;;16.98;68.83
79544;BME280;68994;47.176;7.534;2023-08-06T10:48:50;95878.88;;;17.03;68.59
79544;BME280;68994;47.176;7.534;2023-08-06T10:51:17;95867.00;;;17.40;65.94
79544;BME280;68994;47.176;7.534;2023-08-06T10:53:45;95864.38;;;17.49;65.59
79544;BME280;68994;47.176;7.534;2023-08-06T10:56:12;95886.25;;;16.83;66.51
79544;BME280;68994;47.176;7.534;2023-08-06T10:58:41;95894.09;;;16.05;67.34
79544;BME280;68994;47.176;7.534;2023-08-06T11:01:08;95887.25;;;15.80;68.34
79544;BME280;68994;47.176;7.534;2023-08-06T11:03:35;95882.59;;;15.67;69.37
79544;BME280;68994;47.176;7.534;2023-08-06T11:06:02;95892.94;;;15.79;70.11
79544;BME280;68994;47.176;7.534;2023-08-06T11:08:34;95895.75;;;15.68;67.95
79544;BME280;68994;47.176;7.534;2023-08-06T11:11:08;95903.38;;;15.23;69.72
79544;BME280;68994;47.176;7.534;2023-08-06T11:13:36;95902.56;;;15.03;70.95
79544;BME280;68994;47.176;7.534;2023-08-06T11:16:05;95900.88;;;14.89;72.62
79544;BME280;68994;47.176;7.534;2023-08-06T11:18:32;95915.16;;;14.84;74.70
79544;BME280;68994;47.176;7.534;2023-08-06T11:20:59;95915.84;;;14.95;73.93
79544;BME280;68994;47.176;7.534;2023-08-06T11:23:27;95918.41;;;14.81;71.43
79544;BME280;68994;47.176;7.534;2023-08-06T11:25:54;95905.22;;;14.60;73.79
79544;BME280;68994;47.176;7.534;2023-08-06T11:28:21;95917.09;;;14.49;74.53
79544;BME280;68994;47.176;7.534;2023-08-06T11:30:48;95909.81;;;14.25;75.50
79544;BME280;68994;47.176;7.534;2023-08-06T11:33:20;95894.66;;;14.10;74.50
79544;BME280;68994;47.176;7.534;2023-08-06T11:35:47;95907.75;;;14.17;76.32
79544;BME280;68994;47.176;7.534;2023-08-06T11:38:14;95902.31;;;14.52;75.65
79544;BME280;68994;47.176;7.534;2023-08-06T11:40:43;95888.47;;;14.39;75.89
79544;BME280;68994;47.176;7.534;2023-08-06T11:43:10;95896.09;;;14.61;74.01
79544;BME280;68994;47.176;7.534;2023-08-06T11:45:37;95886.28;;;14.71;75.05
79544;BME280;68994;47.176;7.534;2023-08-06T11:48:04;95894.16;;;15.29;76.13
79544;BME280;68994;47.176;7.534;2023-08-06T11:50:36;95894.00;;;15.39;76.59
79544;BME280;68994;47.176;7.534;2023-08-06T11:53:03;95881.00;;;15.47;73.41
79544;BME280;68994;47.176;7.534;2023-08-06T11:55:30;95890.97;;;15.65;71.88
79544;BME280;68994;47.176;7.534;2023-08-06T11:57:57;95900.78;;;16.41;72.27
79544;BME280;68994;47.176;7.534;2023-08-06T12:00:25;95904.66;;;16.35;71.25
79544;BME280;68994;47.176;7.534;2023-08-06T12:02:52;95902.66;;;16.26;70.57
79544;BME280;68994;47.176;7.534;2023-08-06T12:05:22;95897.22;;;15.80;70.05
79544;BME280;68994;47.176;7.534;2023-08-06T12:07:53;95912.25;;;15.62;69.74
79544;BME280;68994;47.176;7.534;2023-08-06T12:10:20;95927.41;;;15.76;71.53
79544;BME280;68994;47.176;7.534;2023-08-06T12:12:47;95890.44;;;15.63;72.12
79544;BME280;68994;47.176;7.534;2023-08-06T12:15:15;95913.84;;;15.25;71.47
79544;BME280;68994;47.176;7.534;2023-08-06T12:17:42;95914.47;;;15.16;72.80
79544;BME280;68994;47.176;7.534;2023-08-06T12:20:10;95928.69;;;14.98;73.50
79544;BME280;68994;47.176;7.534;2023-08-06T12:22:37;95926.97;;;14.83;72.72
79544;BME280;68994;47.176;7.534;2023-08-06T12:25:08;95907.59;;;14.86;74.13
79544;BME280;68994;47.176;7.534;2023-08-06T12:27:38;95931.94;;;14.71;77.19
79544;BME280;68994;47.176;7.534;2023-08-06T12:30:06;95943.22;;;14.43;74.54
79544;BME280;68994;47.176;7.534;2023-08-06T12:32:33;95954.28;;;14.02;77.82
79544;BME280;68994;47.176;7.534;2023-08-06T12:35:00;95949.72;;;13.68;79.53
79544;BME280;68994;47.176;7.534;2023-08-06T12:37:27;95954.38;;;13.52;80.36
79544;BME280;68994;47.176;7.534;2023-08-06T12:39:53;95958.94;;;13.47;80.78
79544;BME280;68994;47.176;7.534;2023-08-06T12:42:21;95950.59;;;13.53;80.63
79544;BME280;68994;47.176;7.534;2023-08-06T12:44:49;95951.84;;;13.71;80.21
79544;BME280;68994;47.176;7.534;2023-08-06T12:47:16;95956.88;;;14.18;79.71
79544;BME280;68994;47.176;7.534;2023-08-06T12:49:43;95959.25;;;14.19;77.43
79544;BME280;68994;47.176;7.534;2023-08-06T12:52:10;95958.31;;;14.05;76.92
79544;BME280;68994;47.176;7.534;2023-08-06T12:54:37;95959.84;;;14.16;77.97
79544;BME280;68994;47.176;7.534;2023-08-06T12:57:05;95959.97;;;14.30;78.56
79544;BME280;68994;47.176;7.534;2023-08-06T12:59:33;95965.31;;;14.35;78.22
79544;BME280;68994;47.176;7.534;2023-08-06T13:02:02;95974.69;;;14.33;76.96